Boston College, Massachusetts
Current Conditions -  °F | °C
As of 12:54 AM on Thursday 29 Jan 2015 (Local Time) from KBOS Reporting Station
Clear Clear  
Wind Chill:   Ceiling: Unl
Heat Index: 16°   Visibility: 10mi
Dew Point: -1°   Wind: 5mph
Humidity: 47%   Direction: 310°NW
Pressure: 30.24"   Gusts: NA
Location:  42.3163°N, 71.1603°W
Report Text: KBOS 290554Z 31004KT 10SM CLR M09/M18 A3024 RMK AO2 SLP241 T10891183 11050 21089 51015 $
Loading
Personal Weather Stations






























Interactive Weather Map New forecast layout! Learn more

10-Day Weather Forecast

Advertisements
Track Severe Weather on mobile